Ashland City, TN

3:17 AM CDT on September 03, 2014 (GMT -0500)
Camp Sycamore Hills | Change Station
CLOSE
Current Station
Personal Weather Station
Location: Ashland City, TN
Elevation: 436 ft
Nearby Weather Stations

Elev 436 ft 36.32 °N, 87.06 °W | Updated 2 minutes ago

Overcast
Overcast
71.4 °F
Feels Like 71.4 °F
N
0.0
Wind Variable Wind from North

Today
High -- | Low -- °F
--% Chance of Precip.
Yesterday
High -- | Low -- °F
Precip. -- in
6:21 AM 7:13 PM
First Quarter, 60% visible
Pressure 29.98 in
Visibility 10.0 miles
Clouds Few 700 ft
Mostly Cloudy 11000 ft
Dew Point 71 °F
Humidity 99%
Rainfall -999.00 in
Snow Depth Not available.
UV 0 out of 12
Pollen 10.50 out of 12
Ozone Good
PM2.5 Good
Flu Activity Not available.
METAR KBNA 030753Z 00000KT 10SM FEW007 BKN110 23/22 A3000 RMK AO2 RAB17E35 SLP150 P0000 T02280222

More Conditions Fewer Conditions

Pressure 29.98 in
Visibility 10.0 miles
Clouds Few 700 ft
Mostly Cloudy 11000 ft
Dew Point 71 °F
Humidity 99%
Rainfall -999.00 in
Snow Depth Not available.
UV 0 out of 12
Pollen 10.50 out of 12
Ozone Good
PM2.5 Good
Flu Activity Not available.
METAR KBNA 030753Z 00000KT 10SM FEW007 BKN110 23/22 A3000 RMK AO2 RAB17E35 SLP150 P0000 T02280222

More Conditions Fewer Conditions

10-Day Weather Forecast

Almanac

Astronomy

Sep. 03, 2014 Rise Set
Actual Time 6:21 AM CDT 7:13 PM CDT
Civil Twilight 5:55 AM CDT 7:39 PM CDT
Nautical Twilight 5:24 AM CDT 8:10 PM CDT
Astronomical Twilight 4:52 AM CDT 8:42 PM CDT
Moon 2:49 PM CDT 12:20 AM CDT
Length of Visible Light 13h 44m
Length of Day
12h 51m
Tomorrow will be 2m 12s shorter.
First Quarter, 60% of the Moon is Illuminated
Today
First Quarter
Sep 8
Full
Sep 15
Last Quarter
Sep 24
New
Oct 1
First Quarter

Today's Extremes

State Highs State Lows

Community

WunderPhotos

Upload Photos

1,749,902 photos uploaded!

Nearby

Air Quality

  Air Quality AQ Index Pollutant
Yesterday Good
PM2.5
Yesterday Good
OZONE
Current Good
PM2.5
Current Good
OZONE
Wednesday Good
PM2.5
Wednesday Good
OZONE
Thursday Moderate
OZONE
Thursday Good
PM2.5

Snow Depth

Station Depth Elevation
No new snow has been reported.

Earthquake Activity

City Distance Mag. Time & Date
No recent earthquake activity has been reported nearby.
Minimum magnitude displayed is 2.5.

Coastal Water Temperatures

Place Temperature
No Stations Reporting

Nearby Weather Stations